Time;durP1;ratioP1;P1;durP2;ratioP2;P2;SDS_P1;SDS_P2;PMS_P1;PMS_P2;Temp;Humidity;BMP_temperature;BMP_pressure;BME280_temperature;BME280_humidity;BME280_pressure;Samples;Min_cycle;Max_cycle;Signal;HPM_P1;HPM_P2
2022/01/10 00:00:41;;;;;;;45.50;29.55;;;51.60;2227.20;;;;;;5000355;28;20081;-83
2022/01/10 00:03:10;;;;;;;35.22;23.75;;;51.60;2227.20;;;;;;5000415;28;20075;-85
2022/01/10 00:05:36;;;;;;;36.75;25.10;;;51.60;2227.20;;;;;;5000714;28;20068;-90
2022/01/10 00:08:04;;;;;;;30.65;20.73;;;51.60;2227.20;;;;;;5000659;28;20033;-91
2022/01/10 00:10:35;;;;;;;35.97;22.83;;;51.60;2227.20;;;;;;5006405;28;20041;-88
2022/01/10 00:13:01;;;;;;;27.95;19.90;;;51.50;2227.20;;;;;;5020312;28;20116;-89
2022/01/10 00:15:27;;;;;;;36.10;24.48;;;51.60;2227.20;;;;;;5019890;28;20048;-90
2022/01/10 00:17:52;;;;;;;30.67;21.02;;;51.60;2227.20;;;;;;5020228;28;20030;-88
2022/01/10 00:20:19;;;;;;;34.65;22.90;;;51.60;2227.20;;;;;;5020220;28;20476;-87
2022/01/10 00:22:51;;;;;;;44.13;27.25;;;51.60;2227.20;;;;;;5019783;28;20021;-90
2022/01/10 00:25:20;;;;;;;39.00;25.25;;;51.60;2227.20;;;;;;5020042;28;20023;-87
2022/01/10 00:27:46;;;;;;;21.80;16.52;;;51.60;2227.20;;;;;;5019733;28;20108;-88
2022/01/10 00:30:14;;;;;;;26.27;18.38;;;51.60;2227.20;;;;;;5019836;28;20020;-86
2022/01/10 00:32:42;;;;;;;24.23;17.48;;;51.50;2227.20;;;;;;5019742;28;20060;-87
2022/01/10 00:35:09;;;;;;;32.95;20.45;;;51.60;2227.20;;;;;;5019707;28;20116;-89
2022/01/10 00:37:35;;;;;;;26.73;17.40;;;51.50;2227.20;;;;;;5019667;28;20021;-87
2022/01/10 00:40:04;;;;;;;25.42;19.10;;;51.50;2022.40;;;;;;5019706;28;20017;-88
2022/01/10 00:42:31;;;;;;;24.70;17.83;;;51.50;2227.20;;;;;;5019424;28;20018;-88
2022/01/10 00:45:01;;;;;;;18.70;14.98;;;51.60;2227.20;;;;;;5019728;28;20441;-86
2022/01/10 00:47:27;;;;;;;23.77;17.75;;;51.60;2227.20;;;;;;5019694;28;20112;-87
2022/01/10 00:49:53;;;;;;;22.75;17.90;;;51.60;2227.20;;;;;;5019349;28;20021;-87
2022/01/10 00:52:19;;;;;;;24.73;16.98;;;51.50;2227.20;;;;;;5019574;28;20365;-87
2022/01/10 00:54:45;;;;;;;22.33;17.08;;;51.50;2227.20;;;;;;5019310;28;20018;-87
2022/01/10 00:57:11;;;;;;;26.08;18.90;;;51.50;2227.20;;;;;;5019562;28;20037;-88
2022/01/10 00:59:37;;;;;;;22.50;16.35;;;51.50;2150.40;;;;;;5020369;28;20031;-88
2022/01/10 01:02:03;;;;;;;24.20;17.33;;;51.40;2227.20;;;;;;5019795;28;20385;-88
2022/01/10 01:04:29;;;;;;;20.77;16.33;;;51.40;2227.20;;;;;;5019195;28;20022;-88
2022/01/10 01:06:55;;;;;;;26.42;17.52;;;51.30;2227.20;;;;;;5019246;28;20037;-90
2022/01/10 01:09:26;;;;;;;24.30;17.42;;;51.30;2227.20;;;;;;5019314;28;20029;-91
2022/01/10 01:12:15;;;;;;;24.02;18.27;;;51.40;2227.20;;;;;;5018818;28;20092;-89
2022/01/10 01:17:14;;;;;;;22.17;15.65;;;51.40;2227.20;;;;;;5036562;28;20040;-88
2022/01/10 01:25:07;;;;;;;22.63;16.75;;;51.30;2227.20;;;;;;5036390;28;20109;-89
2022/01/10 01:27:32;;;;;;;20.85;15.65;;;51.30;1894.40;;;;;;5018758;28;20095;-88
2022/01/10 01:29:58;;;;;;;23.33;17.88;;;51.20;2073.60;;;;;;5018791;28;20453;-87
2022/01/10 01:32:24;;;;;;;21.90;16.58;;;51.30;2227.20;;;;;;5018557;28;20116;-92
2022/01/10 01:34:50;;;;;;;24.40;16.83;;;51.30;2176.00;;;;;;5018791;28;20053;-90
2022/01/10 01:37:16;;;;;;;23.38;18.05;;;51.30;2227.20;;;;;;5018696;28;20488;-89
2022/01/10 01:39:42;;;;;;;21.25;15.63;;;51.30;1894.40;;;;;;5018382;28;20045;-91
2022/01/10 01:42:32;;;;;;;32.65;22.95;;;51.30;2227.20;;;;;;5018566;28;20115;-88
2022/01/10 01:44:58;;;;;;;42.58;27.13;;;51.30;2227.20;;;;;;5018623;28;20456;-86
2022/01/10 01:47:24;;;;;;;43.13;26.52;;;51.40;2073.60;;;;;;5017781;28;20052;-87
2022/01/10 01:49:50;;;;;;;24.67;18.63;;;51.40;2227.20;;;;;;5018371;28;20021;-89
2022/01/10 01:52:16;;;;;;;29.65;20.67;;;51.50;2227.20;;;;;;5018503;28;20064;-90
2022/01/10 01:54:42;;;;;;;25.95;19.50;;;51.60;2227.20;;;;;;5018301;28;20112;-89
2022/01/10 01:57:08;;;;;;;23.60;18.38;;;51.50;2227.20;;;;;;5018454;28;20365;-88
2022/01/10 01:59:36;;;;;;;21.50;16.23;;;51.60;2227.20;;;;;;5018085;28;20025;-87
2022/01/10 02:02:02;;;;;;;21.13;15.73;;;51.50;2227.20;;;;;;5018334;28;20457;-88
2022/01/10 02:04:28;;;;;;;22.95;16.38;;;51.60;2227.20;;;;;;5018229;28;20032;-89
2022/01/10 02:06:54;;;;;;;19.17;14.55;;;51.50;2227.20;;;;;;5017783;28;20025;-88
2022/01/10 02:09:19;;;;;;;19.88;14.18;;;51.40;2227.20;;;;;;5017670;28;20036;-89
2022/01/10 02:11:45;;;;;;;19.38;14.00;;;51.30;1868.80;;;;;;5017964;28;20045;-91
2022/01/10 02:14:11;;;;;;;18.15;12.65;;;51.20;2227.20;;;;;;5018210;28;20049;-89
2022/01/10 02:16:43;;;;;;;15.88;12.40;;;51.20;2227.20;;;;;;5017947;28;20450;-89
2022/01/10 02:19:10;;;;;;;18.33;13.20;;;26.50;2073.60;;;;;;5018314;28;20438;-88
2022/01/10 02:21:37;;;;;;;23.00;15.32;;;26.50;2201.60;;;;;;5017550;28;20030;-88
2022/01/10 02:24:05;;;;;;;20.27;14.27;;;26.50;2201.60;;;;;;5017791;28;20017;-89
2022/01/10 02:26:31;;;;;;;17.60;12.85;;;26.50;2201.60;;;;;;5035260;28;20037;-88
2022/01/10 02:28:57;;;;;;;19.25;13.00;;;26.40;2201.60;;;;;;5017492;28;20465;-90
2022/01/10 02:31:24;;;;;;;15.07;11.50;;;26.30;2201.60;;;;;;5017694;28;20018;-89
2022/01/10 02:33:52;;;;;;;18.17;12.60;;;26.40;2201.60;;;;;;5017706;28;20354;-89
2022/01/10 02:36:26;;;;;;;19.95;14.63;;;26.50;2201.60;;;;;;5017697;28;20029;-90
2022/01/10 02:38:52;;;;;;;29.55;19.00;;;26.40;2150.40;;;;;;5017775;28;20025;-90
2022/01/10 02:41:30;;;;;;;26.90;17.45;;;26.40;2201.60;;;;;;5017488;28;20025;-89
2022/01/10 02:43:57;;;;;;;27.33;16.15;;;26.30;2201.60;;;;;;5017545;28;20112;-89
2022/01/10 02:46:24;;;;;;;28.98;19.20;;;26.30;2201.60;;;;;;5017371;28;20029;-90
2022/01/10 02:48:50;;;;;;;23.23;14.75;;;26.30;2201.60;;;;;;5017454;28;20036;-89
2022/01/10 02:51:16;;;;;;;34.95;20.33;;;26.20;2201.60;;;;;;5017691;28;20138;-88
2022/01/10 02:53:43;;;;;;;28.65;18.80;;;26.20;2201.60;;;;;;5017308;28;20151;-90
2022/01/10 02:56:10;;;;;;;25.45;17.27;;;26.30;2099.20;;;;;;5017317;28;20176;-88
2022/01/10 02:58:36;;;;;;;24.40;16.17;;;26.10;2150.40;;;;;;5017143;28;20021;-91
2022/01/10 03:01:03;;;;;;;39.60;22.60;;;26.20;2201.60;;;;;;5016638;28;20044;-90
2022/01/10 03:03:32;;;;;;;32.92;19.40;;;26.10;2201.60;;;;;;5017177;28;20368;-88
2022/01/10 03:05:59;;;;;;;30.63;17.67;;;26.10;2201.60;;;;;;5017197;28;20091;-86
2022/01/10 03:08:27;;;;;;;61.58;28.52;;;26.20;2201.60;;;;;;5017287;28;20029;-90
2022/01/10 03:10:53;;;;;;;60.00;27.55;;;26.20;2201.60;;;;;;5017134;28;20128;-89
2022/01/10 03:13:19;;;;;;;38.95;21.00;;;26.20;2201.60;;;;;;5017138;28;20032;-87
2022/01/10 03:15:46;;;;;;;53.20;25.15;;;26.20;2201.60;;;;;;5017233;28;20112;-89
2022/01/10 03:18:11;;;;;;;75.80;30.55;;;26.10;2201.60;;;;;;5017080;28;20067;-91
2022/01/10 03:20:37;;;;;;;101.38;41.45;;;26.20;2201.60;;;;;;5017145;28;20449;-90
2022/01/10 03:23:04;;;;;;;42.78;21.27;;;26.20;2201.60;;;;;;5017126;28;20117;-89
2022/01/10 03:25:30;;;;;;;52.15;27.02;;;26.20;2201.60;;;;;;5016721;28;20022;-89
2022/01/10 03:27:55;;;;;;;47.65;25.30;;;26.20;2201.60;;;;;;5022128;28;20036;-87
2022/01/10 03:30:21;;;;;;;18.23;13.32;;;26.20;2201.60;;;;;;5035846;28;20006;-88
2022/01/10 03:32:50;;;;;;;50.17;25.75;;;26.00;2201.60;;;;;;5017121;28;20452;-88
2022/01/10 03:35:16;;;;;;;24.35;15.25;;;26.10;1945.60;;;;;;5017220;28;20057;-91
2022/01/10 03:37:42;;;;;;;34.15;18.42;;;25.60;2201.60;;;;;;5016980;28;20075;-90
2022/01/10 03:40:08;;;;;;;30.00;15.95;;;26.00;2201.60;;;;;;5016953;28;20112;-88
2022/01/10 03:42:35;;;;;;;71.15;29.10;;;25.90;2201.60;;;;;;5017148;28;20021;-89
2022/01/10 03:45:04;;;;;;;71.50;32.55;;;25.90;2201.60;;;;;;5016621;28;20029;-89
2022/01/10 03:47:29;;;;;;;56.90;27.25;;;25.90;2201.60;;;;;;5016858;28;20056;-89
2022/01/10 03:49:55;;;;;;;88.53;35.63;;;26.00;2201.60;;;;;;5016828;28;20511;-90
2022/01/10 03:52:23;;;;;;;98.13;45.78;;;26.00;2201.60;;;;;;5016670;28;20028;-90
2022/01/10 03:54:49;;;;;;;58.75;30.67;;;26.10;2201.60;;;;;;5016743;28;20035;-90
2022/01/10 03:57:15;;;;;;;92.40;40.28;;;26.50;2201.60;;;;;;5016763;28;20057;-91
2022/01/10 03:59:41;;;;;;;84.68;38.22;;;26.10;2201.60;;;;;;5016767;28;20063;-91
2022/01/10 04:02:07;;;;;;;96.63;42.50;;;26.00;2201.60;;;;;;5016921;28;20049;-88
2022/01/10 04:04:35;;;;;;;99.25;46.10;;;26.10;2201.60;;;;;;5016607;28;20032;-89
2022/01/10 04:07:02;;;;;;;29.23;17.77;;;26.00;2201.60;;;;;;5016352;28;20026;-90
2022/01/10 04:09:27;;;;;;;50.30;25.17;;;26.00;2201.60;;;;;;5016567;28;20373;-88
2022/01/10 04:11:53;;;;;;;67.00;34.85;;;26.00;2201.60;;;;;;5018828;28;20045;-89
2022/01/10 04:14:19;;;;;;;57.20;30.05;;;26.00;2201.60;;;;;;5020335;28;20018;-88
2022/01/10 04:16:45;;;;;;;28.08;15.82;;;25.90;2201.60;;;;;;5020398;28;20037;-88
2022/01/10 04:19:11;;;;;;;26.40;15.57;;;25.80;2201.60;;;;;;5020500;28;20022;-89
2022/01/10 04:21:37;;;;;;;33.05;19.73;;;25.70;2201.60;;;;;;5020337;28;20044;-88
2022/01/10 04:24:03;;;;;;;30.25;18.65;;;25.70;2201.60;;;;;;5020300;28;20021;-88
2022/01/10 04:26:30;;;;;;;39.25;21.02;;;25.90;2201.60;;;;;;5020152;28;20037;-89
2022/01/10 04:28:55;;;;;;;41.63;22.77;;;25.70;2201.60;;;;;;5020117;28;20048;-89
2022/01/10 04:31:21;;;;;;;47.72;24.50;;;25.90;2201.60;;;;;;5020235;28;20441;-89
2022/01/10 04:33:47;;;;;;;35.50;19.77;;;25.90;2201.60;;;;;;5019895;28;20441;-89
2022/01/10 04:36:13;;;;;;;49.75;26.98;;;25.90;2201.60;;;;;;5020071;28;20025;-90
2022/01/10 04:38:42;;;;;;;33.03;18.92;;;25.90;2201.60;;;;;;5019700;28;20017;-89
2022/01/10 04:41:09;;;;;;;36.78;21.08;;;25.90;2201.60;;;;;;5019781;28;20677;-89
2022/01/10 04:43:36;;;;;;;41.83;24.02;;;25.90;1971.20;;;;;;5020007;28;20022;-90
2022/01/10 04:46:02;;;;;;;35.45;22.27;;;26.00;1868.80;;;;;;5019583;28;20056;-88
2022/01/10 04:48:27;;;;;;;37.38;19.77;;;26.00;2201.60;;;;;;5019618;28;20029;-88
2022/01/10 04:51:12;;;;;;;42.25;26.75;;;26.00;2201.60;;;;;;5019456;28;20017;-89
2022/01/10 04:53:45;;;;;;;47.50;28.75;;;26.00;2201.60;;;;;;5019640;28;20091;-91
2022/01/10 04:56:12;;;;;;;37.05;24.35;;;26.00;2201.60;;;;;;5019657;28;20369;-88
2022/01/10 04:58:39;;;;;;;27.73;17.95;;;26.00;2201.60;;;;;;5019636;28;20029;-89
2022/01/10 05:01:06;;;;;;;35.50;23.65;;;26.00;2201.60;;;;;;5019717;28;20025;-89
2022/01/10 05:03:32;;;;;;;18.35;12.40;;;26.00;2201.60;;;;;;5019442;28;20021;-89
2022/01/10 05:05:58;;;;;;;21.45;15.80;;;25.90;2201.60;;;;;;5019365;28;20036;-90
2022/01/10 05:08:24;;;;;;;18.80;13.20;;;25.80;2201.60;;;;;;5019174;28;20025;-87
2022/01/10 05:10:51;;;;;;;23.90;17.95;;;25.80;2201.60;;;;;;5019222;28;20140;-90
2022/01/10 05:13:17;;;;;;;23.30;14.88;;;25.70;2201.60;;;;;;5019294;28;20025;-89
2022/01/10 05:15:46;;;;;;;23.33;16.35;;;25.70;2201.60;;;;;;5019165;28;20026;-87
2022/01/10 05:18:13;;;;;;;20.27;14.82;;;25.70;2201.60;;;;;;5019288;28;20037;-88
2022/01/10 05:20:39;;;;;;;20.58;14.45;;;25.70;2201.60;;;;;;5019351;28;20079;-88
2022/01/10 05:23:05;;;;;;;23.17;16.35;;;25.60;2201.60;;;;;;5018177;28;20021;-90
2022/01/10 05:25:32;;;;;;;24.52;17.20;;;25.70;2201.60;;;;;;5018966;28;20048;-89
2022/01/10 05:27:58;;;;;;;25.92;17.13;;;25.70;2201.60;;;;;;5018830;28;20093;-90
2022/01/10 05:30:24;;;;;;;23.50;15.75;;;25.70;2201.60;;;;;;5019002;28;20041;-89
2022/01/10 05:32:50;;;;;;;34.42;20.17;;;25.70;2201.60;;;;;;5018928;28;20021;-89
2022/01/10 05:35:15;;;;;;;41.53;27.13;;;25.70;2201.60;;;;;;5018832;28;20024;-88
2022/01/10 05:37:41;;;;;;;45.03;26.58;;;25.70;2201.60;;;;;;5018920;28;20032;-90
2022/01/10 05:40:07;;;;;;;31.58;22.45;;;25.70;2201.60;;;;;;5018733;28;20049;-89
2022/01/10 05:42:33;;;;;;;25.63;16.25;;;25.60;2201.60;;;;;;5018688;28;20018;-89
2022/01/10 05:44:59;;;;;;;28.58;21.50;;;25.60;2201.60;;;;;;5018599;28;20033;-90
2022/01/10 05:47:26;;;;;;;29.95;18.73;;;25.60;2201.60;;;;;;5019231;28;20473;-91
2022/01/10 05:50:00;;;;;;;31.92;20.42;;;25.60;2201.60;;;;;;5018691;28;20025;-87
2022/01/10 05:52:26;;;;;;;29.52;18.83;;;25.60;2201.60;;;;;;5018708;28;20453;-91
2022/01/10 05:54:52;;;;;;;24.08;16.75;;;25.60;2201.60;;;;;;5018484;28;20522;-90
2022/01/10 05:57:18;;;;;;;22.60;17.38;;;25.60;2201.60;;;;;;5018402;28;20061;-88
2022/01/10 05:59:44;;;;;;;27.45;18.95;;;25.60;2201.60;;;;;;5018475;28;20017;-88
2022/01/10 06:02:09;;;;;;;28.23;18.55;;;25.70;2201.60;;;;;;5018488;28;20084;-90
2022/01/10 06:04:35;;;;;;;25.70;18.75;;;25.70;2201.60;;;;;;5018853;28;20026;-89
2022/01/10 06:07:01;;;;;;;29.23;19.58;;;25.60;2201.60;;;;;;5019013;28;20042;-91
2022/01/10 06:09:27;;;;;;;24.08;16.67;;;25.70;2201.60;;;;;;5019081;28;20060;-89
2022/01/10 06:11:53;;;;;;;25.67;17.48;;;25.70;2201.60;;;;;;5018304;28;20069;-90
2022/01/10 06:14:19;;;;;;;20.77;14.05;;;25.70;2201.60;;;;;;5018178;28;20465;-88
2022/01/10 06:16:45;;;;;;;23.33;17.95;;;25.60;2201.60;;;;;;5018166;28;20029;-88
2022/01/10 06:19:11;;;;;;;29.27;20.42;;;25.70;2201.60;;;;;;5018028;28;20053;-89
2022/01/10 06:21:36;;;;;;;29.73;21.85;;;25.70;2201.60;;;;;;5017948;28;20033;-89
2022/01/10 06:24:02;;;;;;;32.40;22.85;;;25.70;2201.60;;;;;;5018333;28;20028;-90
2022/01/10 06:26:28;;;;;;;28.65;20.00;;;25.70;2201.60;;;;;;5017862;28;20133;-90
2022/01/10 06:28:54;;;;;;;28.60;20.73;;;25.70;2201.60;;;;;;5017976;28;20059;-91
2022/01/10 06:31:20;;;;;;;33.17;23.55;;;25.70;2201.60;;;;;;5018096;28;20022;-90
2022/01/10 06:33:46;;;;;;;25.48;17.75;;;25.70;2201.60;;;;;;5018020;28;20080;-88
2022/01/10 06:36:11;;;;;;;29.85;21.05;;;25.70;2201.60;;;;;;5017822;28;20031;-88
2022/01/10 06:38:37;;;;;;;31.95;20.67;;;25.70;2201.60;;;;;;5017825;28;20017;-89
2022/01/10 06:41:03;;;;;;;28.73;21.42;;;25.70;2201.60;;;;;;5035804;28;20010;-88
2022/01/10 06:43:29;;;;;;;36.22;26.77;;;25.70;2201.60;;;;;;5028365;28;20028;-89
2022/01/10 06:45:55;;;;;;;67.95;41.75;;;25.60;2201.60;;;;;;5017963;28;20029;-90
2022/01/10 06:48:21;;;;;;;54.92;32.45;;;25.60;2201.60;;;;;;5017713;28;20346;-89
2022/01/10 06:50:48;;;;;;;45.17;28.17;;;25.70;2201.60;;;;;;5017622;28;20056;-90
2022/01/10 06:53:17;;;;;;;35.30;24.63;;;25.60;2201.60;;;;;;5017955;28;20450;-93
2022/01/10 06:55:43;;;;;;;34.60;23.70;;;25.70;2201.60;;;;;;5017408;28;20032;-90
2022/01/10 06:58:09;;;;;;;29.83;22.50;;;25.70;2201.60;;;;;;5017585;28;20032;-89
2022/01/10 07:00:37;;;;;;;40.45;24.95;;;25.70;2201.60;;;;;;5017149;28;20022;-90
2022/01/10 07:03:02;;;;;;;31.48;20.75;;;25.70;2201.60;;;;;;5017346;28;20080;-90
2022/01/10 07:05:28;;;;;;;27.20;16.15;;;25.70;2201.60;;;;;;5017353;28;20033;-88
2022/01/10 07:07:54;;;;;;;33.72;21.33;;;25.70;2201.60;;;;;;5017165;28;20025;-89
2022/01/10 07:10:21;;;;;;;37.95;25.77;;;25.70;2201.60;;;;;;5017259;28;20049;-89
2022/01/10 07:12:47;;;;;;;26.75;19.02;;;25.60;2201.60;;;;;;5017392;28;20368;-89
2022/01/10 07:15:14;;;;;;;33.55;19.10;;;25.80;2201.60;;;;;;5017238;28;20453;-90
2022/01/10 07:17:39;;;;;;;35.05;22.60;;;25.70;2201.60;;;;;;5017335;28;20025;-89
2022/01/10 07:20:06;;;;;;;24.40;16.95;;;25.80;2201.60;;;;;;5017268;28;20029;-90
2022/01/10 07:22:32;;;;;;;23.08;16.50;;;25.70;2201.60;;;;;;5017086;28;20342;-87
2022/01/10 07:25:02;;;;;;;36.47;25.38;;;25.70;2201.60;;;;;;5017197;28;20029;-88
2022/01/10 07:27:28;;;;;;;27.58;17.23;;;25.70;2201.60;;;;;;5016442;28;20038;-90
2022/01/10 07:29:54;;;;;;;36.60;24.50;;;25.70;2201.60;;;;;;5017234;28;20022;-87
2022/01/10 07:32:20;;;;;;;39.25;25.23;;;25.70;2201.60;;;;;;5017283;28;20099;-88
2022/01/10 07:34:46;;;;;;;30.65;20.63;;;25.70;2201.60;;;;;;5017233;28;20113;-90
2022/01/10 07:37:12;;;;;;;30.42;20.58;;;25.60;2201.60;;;;;;5017056;28;20461;-89
2022/01/10 07:39:38;;;;;;;40.35;21.90;;;25.70;2201.60;;;;;;5017202;28;20048;-89
2022/01/10 07:42:04;;;;;;;52.60;30.90;;;25.70;2201.60;;;;;;5017070;28;20057;-89
2022/01/10 07:44:30;;;;;;;37.67;23.90;;;25.70;2201.60;;;;;;5017046;28;20044;-91
2022/01/10 07:46:56;;;;;;;37.83;25.20;;;25.80;2201.60;;;;;;5019192;28;20112;-91
2022/01/10 07:49:22;;;;;;;31.95;21.80;;;25.80;2201.60;;;;;;5020963;28;20060;-91
2022/01/10 07:51:48;;;;;;;30.52;20.80;;;25.80;2201.60;;;;;;5021443;28;20112;-90
2022/01/10 07:54:14;;;;;;;24.75;17.23;;;25.80;2201.60;;;;;;5020946;28;20548;-89
2022/01/10 07:56:40;;;;;;;31.08;22.98;;;25.80;2201.60;;;;;;5020637;28;20075;-90
2022/01/10 07:59:05;;;;;;;31.15;21.85;;;25.80;2201.60;;;;;;5020498;28;20116;-89
2022/01/10 08:01:31;;;;;;;34.13;22.65;;;25.90;2176.00;;;;;;5020524;28;20064;-89
2022/01/10 08:03:57;;;;;;;34.95;23.90;;;25.90;2022.40;;;;;;5020641;28;20033;-92
2022/01/10 08:06:23;;;;;;;39.85;30.00;;;26.00;2201.60;;;;;;5020465;28;20487;-90
2022/01/10 08:08:50;;;;;;;24.40;17.73;;;26.00;2201.60;;;;;;5020647;28;20026;-90
2022/01/10 08:11:16;;;;;;;21.55;15.65;;;25.90;2201.60;;;;;;5020190;28;20465;-91
2022/01/10 08:13:45;;;;;;;20.70;16.23;;;25.80;2201.60;;;;;;5020517;28;20075;-88
2022/01/10 08:16:11;;;;;;;29.48;22.30;;;26.00;2201.60;;;;;;5020301;28;20025;-92
2022/01/10 08:18:36;;;;;;;27.77;19.15;;;26.10;2201.60;;;;;;5020034;28;20032;-91
2022/01/10 08:21:06;;;;;;;33.92;24.25;;;26.00;2201.60;;;;;;5020456;28;20457;-91
2022/01/10 08:23:31;;;;;;;22.33;17.13;;;26.00;2201.60;;;;;;5020241;28;20025;-91
2022/01/10 08:25:57;;;;;;;25.25;19.85;;;26.00;2201.60;;;;;;5020190;28;20429;-91
2022/01/10 08:28:23;;;;;;;27.88;20.38;;;26.00;2150.40;;;;;;5020252;28;20116;-89
2022/01/10 08:30:50;;;;;;;30.30;20.05;;;26.00;2201.60;;;;;;5020083;28;20033;-91
2022/01/10 08:33:15;;;;;;;29.33;21.15;;;25.70;2201.60;;;;;;5020036;28;20048;-91
2022/01/10 08:35:41;;;;;;;37.15;27.27;;;26.10;2201.60;;;;;;5020226;28;20023;-90
2022/01/10 08:38:07;;;;;;;41.17;28.60;;;26.10;2201.60;;;;;;5020033;28;20373;-90
2022/01/10 08:40:33;;;;;;;24.15;18.63;;;26.10;2201.60;;;;;;5020150;28;20029;-90
2022/01/10 08:43:02;;;;;;;33.05;22.95;;;26.10;2201.60;;;;;;5019708;28;20027;-90
2022/01/10 08:45:27;;;;;;;27.38;19.85;;;26.10;2201.60;;;;;;5019982;28;20021;-90
2022/01/10 08:47:53;;;;;;;28.98;20.67;;;26.20;2073.60;;;;;;5019918;28;20484;-90
2022/01/10 08:50:19;;;;;;;27.98;21.63;;;26.20;2201.60;;;;;;5019897;28;20022;-90
2022/01/10 08:52:46;;;;;;;25.58;19.50;;;26.20;2201.60;;;;;;5019823;28;20026;-91
2022/01/10 08:55:12;;;;;;;27.55;21.63;;;26.20;2201.60;;;;;;5019797;28;20360;-90
2022/01/10 08:57:38;;;;;;;21.73;16.77;;;26.20;2201.60;;;;;;5018380;28;20144;-90
2022/01/10 09:00:06;;;;;;;21.33;16.08;;;26.20;2201.60;;;;;;5019522;28;20056;-90
2022/01/10 09:02:32;;;;;;;22.02;16.40;;;26.10;2201.60;;;;;;5019450;28;20018;-88
2022/01/10 09:04:58;;;;;;;24.83;20.85;;;26.10;2201.60;;;;;;5019523;28;20021;-90
2022/01/10 09:07:24;;;;;;;21.77;17.02;;;26.20;2201.60;;;;;;5019158;28;20376;-92
2022/01/10 09:09:50;;;;;;;20.63;15.00;;;26.20;2201.60;;;;;;5019296;28;20025;-91
2022/01/10 09:12:16;;;;;;;23.27;17.05;;;26.20;2201.60;;;;;;5019351;28;20482;-91
2022/01/10 09:14:42;;;;;;;29.80;22.52;;;26.20;2201.60;;;;;;5019385;28;20017;-89
2022/01/10 09:17:07;;;;;;;40.55;26.38;;;26.00;2201.60;;;;;;5019136;28;20445;-90
2022/01/10 09:19:33;;;;;;;34.40;23.23;;;26.20;2201.60;;;;;;5019266;28;20057;-91
2022/01/10 09:22:19;;;;;;;23.85;18.83;;;26.20;2201.60;;;;;;5019427;28;20018;-92
2022/01/10 09:24:46;;;;;;;24.55;17.38;;;26.10;2201.60;;;;;;5019350;28;20516;-91
2022/01/10 09:27:14;;;;;;;27.75;19.33;;;26.20;2201.60;;;;;;5019338;28;20033;-90
2022/01/10 09:29:41;;;;;;;33.03;21.88;;;25.90;2201.60;;;;;;5018950;28;20373;-90
2022/01/10 09:32:10;;;;;;;25.70;17.70;;;26.30;2201.60;;;;;;5019195;28;20021;-90
2022/01/10 09:34:36;;;;;;;36.97;25.13;;;26.30;2201.60;;;;;;5018584;28;20075;-88
2022/01/10 09:37:03;;;;;;;33.58;24.90;;;26.30;2201.60;;;;;;5019628;28;20420;-90
2022/01/10 09:39:29;;;;;;;26.80;18.65;;;26.50;2201.60;;;;;;5019087;28;20018;-87
2022/01/10 09:41:57;;;;;;;79.95;44.72;;;26.40;2201.60;;;;;;5018486;28;20076;-88
2022/01/10 09:44:23;;;;;;;52.28;28.92;;;26.50;2201.60;;;;;;5018858;28;20453;-90
2022/01/10 09:46:50;;;;;;;69.55;30.17;;;26.40;2201.60;;;;;;5018380;28;20025;-85
2022/01/10 09:49:17;;;;;;;61.55;23.50;;;51.30;2227.20;;;;;;5018574;28;20025;-88
2022/01/10 09:51:44;;;;;;;60.45;27.63;;;51.20;2227.20;;;;;;5018622;28;20088;-90
2022/01/10 09:54:11;;;;;;;68.28;30.77;;;51.20;2227.20;;;;;;5022911;28;20022;-88
2022/01/10 09:56:37;;;;;;;56.08;25.10;;;51.30;2227.20;;;;;;5030506;28;20025;-83
2022/01/10 09:59:04;;;;;;;62.60;27.85;;;51.30;2227.20;;;;;;5017906;28;20389;-82
2022/01/10 10:01:30;;;;;;;172.82;75.72;;;51.40;2227.20;;;;;;5018108;28;20029;-90
2022/01/10 10:03:59;;;;;;;134.18;63.78;;;51.30;2227.20;;;;;;5018578;28;20105;-90
2022/01/10 10:06:27;;;;;;;70.47;33.83;;;51.30;2227.20;;;;;;5018190;28;20021;-86
2022/01/10 10:08:58;;;;;;;58.80;33.80;;;51.30;2227.20;;;;;;5017864;28;20025;-87
2022/01/10 10:11:34;;;;;;;73.60;39.97;;;51.20;2227.20;;;;;;5017457;28;20175;-90
2022/01/10 10:14:04;;;;;;;58.78;36.83;;;51.30;2227.20;;;;;;5018235;28;20034;-90
2022/01/10 10:16:32;;;;;;;61.22;33.88;;;51.30;2227.20;;;;;;5017917;28;20103;-89
2022/01/10 10:19:02;;;;;;;62.15;35.55;;;51.30;2227.20;;;;;;5017904;28;20018;-86
2022/01/10 10:21:28;;;;;;;24.80;15.15;;;51.30;2227.20;;;;;;5017705;28;20026;-91
2022/01/10 10:23:54;;;;;;;26.40;19.10;;;51.30;2227.20;;;;;;5017829;28;20445;-90
2022/01/10 10:26:24;;;;;;;27.33;18.35;;;51.30;2227.20;;;;;;5017746;28;20021;-90
2022/01/10 10:28:52;;;;;;;23.90;17.35;;;51.40;2227.20;;;;;;5018259;28;20029;-90
2022/01/10 10:31:31;;;;;;;24.10;16.98;;;51.40;2227.20;;;;;;5017906;28;20018;-89
2022/01/10 10:34:01;;;;;;;28.23;20.05;;;51.40;2227.20;;;;;;5035477;28;20077;-90
2022/01/10 10:36:33;;;;;;;18.48;16.48;;;51.50;2227.20;;;;;;5017565;28;20361;-91
2022/01/10 10:39:03;;;;;;;21.13;14.85;;;51.50;2227.20;;;;;;5017198;28;20037;-88
2022/01/10 10:41:29;;;;;;;25.48;19.75;;;51.60;2227.20;;;;;;5017556;28;20040;-89
2022/01/10 10:43:55;;;;;;;25.10;14.80;;;51.50;2227.20;;;;;;5017521;28;20017;-89
2022/01/10 10:46:26;;;;;;;33.65;24.35;;;51.50;2227.20;;;;;;5016321;28;20029;-89
2022/01/10 10:49:04;;;;;;;18.38;15.80;;;51.60;2227.20;;;;;;5017424;28;20164;-90
2022/01/10 10:51:33;;;;;;;45.80;32.38;;;51.50;2227.20;;;;;;5017901;28;20025;-90
2022/01/10 10:54:07;;;;;;;21.60;15.23;;;51.40;2227.20;;;;;;5017889;28;20520;-89
2022/01/10 10:56:35;;;;;;;20.65;16.48;;;51.40;2227.20;;;;;;5035390;28;20025;-91
2022/01/10 10:59:01;;;;;;;21.77;16.52;;;51.50;2227.20;;;;;;5017462;28;20017;-92
2022/01/10 11:01:27;;;;;;;19.23;14.13;;;51.50;2227.20;;;;;;5017219;28;20056;-88
2022/01/10 11:03:53;;;;;;;16.85;13.23;;;52.00;2227.20;;;;;;5034870;28;20529;-90
2022/01/10 11:06:20;;;;;;;20.50;15.90;;;51.50;2227.20;;;;;;5016946;28;20022;-90
2022/01/10 11:08:47;;;;;;;20.65;15.35;;;51.50;2227.20;;;;;;5017245;28;20036;-91
2022/01/10 11:11:22;;;;;;;24.20;15.85;;;51.40;2227.20;;;;;;5016990;28;20048;-91
2022/01/10 11:13:50;;;;;;;28.42;20.33;;;51.40;2227.20;;;;;;5017904;28;20032;-89
2022/01/10 11:16:17;;;;;;;24.10;19.27;;;51.40;2227.20;;;;;;5017131;28;20029;-90
2022/01/10 11:18:43;;;;;;;25.08;21.40;;;51.50;2227.20;;;;;;5017066;28;20045;-88
2022/01/10 11:21:10;;;;;;;25.90;19.27;;;51.30;2227.20;;;;;;5016086;28;20119;-85
2022/01/10 11:23:43;;;;;;;27.75;19.98;;;51.30;2227.20;;;;;;5016743;28;20028;-88
2022/01/10 11:26:15;;;;;;;33.05;24.58;;;51.30;2227.20;;;;;;5016854;28;20048;-88
2022/01/10 11:28:55;;;;;;;36.65;25.83;;;51.40;2227.20;;;;;;5016386;28;20075;-89
2022/01/10 11:32:22;;;;;;;;;;;;;;;;;;;;;
2022/01/10 11:34:48;;;;;;;39.08;24.83;;;51.40;2227.20;;;;;;4954342;29;20027;-89
2022/01/10 11:37:42;;;;;;;;;;;;;;;;;;;;;
2022/01/10 11:40:27;;;;;;;32.17;23.65;;;51.60;2227.20;;;;;;5033903;28;20024;-86
2022/01/10 11:47:20;;;;;;;;;;;;;;;;;;;;;
2022/01/10 11:49:56;;;;;;;40.42;27.25;;;51.60;2227.20;;;;;;5003432;28;20056;-87
2022/01/10 11:52:26;;;;;;;48.25;30.23;;;51.20;2227.20;;;;;;4996159;28;20026;-84
2022/01/10 11:54:54;;;;;;;32.90;26.38;;;51.70;2227.20;;;;;;4996682;28;20025;-79
2022/01/10 11:57:20;;;;;;;50.50;35.33;;;51.70;2227.20;;;;;;4996535;28;20037;-84
2022/01/10 11:59:52;;;;;;;47.58;32.47;;;51.70;2227.20;;;;;;5012793;28;20026;-84
2022/01/10 12:02:24;;;;;;;45.75;32.85;;;51.70;2227.20;;;;;;4996490;28;20029;-84
2022/01/10 12:04:52;;;;;;;55.72;33.63;;;51.70;2227.20;;;;;;4996627;28;20030;-82
2022/01/10 12:07:22;;;;;;;32.80;21.58;;;51.60;2227.20;;;;;;4996663;28;20033;-85
2022/01/10 12:09:48;;;;;;;24.75;14.38;;;51.70;2227.20;;;;;;4996533;28;20469;-87
2022/01/10 12:12:17;;;;;;;34.30;21.48;;;52.10;2227.20;;;;;;4993362;28;20050;-83
2022/01/10 12:14:45;;;;;;;35.38;20.13;;;51.60;2227.20;;;;;;4993161;28;20030;-84
2022/01/10 12:17:12;;;;;;;26.48;16.40;;;51.70;2227.20;;;;;;4992865;28;20469;-84
2022/01/10 12:19:39;;;;;;;19.67;12.18;;;51.70;2227.20;;;;;;4993247;28;20406;-82
2022/01/10 12:22:06;;;;;;;20.63;14.40;;;51.60;2227.20;;;;;;4992958;28;20142;-84
2022/01/10 12:24:40;;;;;;;20.70;13.38;;;51.60;2227.20;;;;;;4992882;28;20022;-81